createdAt,value
2017-11-22T00:01:40.536Z,86.00
2017-11-22T00:04:06.960Z,86.30
2017-11-22T00:06:33.337Z,86.70
2017-11-22T00:08:59.725Z,86.70
2017-11-22T00:11:26.149Z,86.80
2017-11-22T00:13:52.556Z,86.00
2017-11-22T00:16:18.952Z,86.50
2017-11-22T00:18:46.116Z,86.10
2017-11-22T00:21:12.528Z,86.10
2017-11-22T00:23:39.662Z,86.80
2017-11-22T00:26:06.093Z,86.60
2017-11-22T00:28:39.440Z,87.00
2017-11-22T00:31:05.855Z,86.90
2017-11-22T00:33:32.284Z,86.90
2017-11-22T00:35:59.420Z,87.40
2017-11-22T00:38:26.689Z,88.00
2017-11-22T00:40:53.830Z,88.10
2017-11-22T00:43:20.978Z,88.10
2017-11-22T00:45:48.133Z,88.30
2017-11-22T00:48:15.285Z,88.50
2017-11-22T00:50:42.471Z,88.20
2017-11-22T00:53:08.872Z,88.10
2017-11-22T00:55:36.066Z,88.60
2017-11-22T00:58:02.471Z,88.50
2017-11-22T01:00:28.885Z,88.30
2017-11-22T01:02:56.055Z,88.70
2017-11-22T01:05:22.444Z,88.50
2017-11-22T01:07:48.833Z,88.60
2017-11-22T01:10:15.283Z,88.60
2017-11-22T01:12:41.679Z,88.90
2017-11-22T01:15:08.114Z,88.50
2017-11-22T01:17:34.492Z,88.30
2017-11-22T01:20:00.883Z,88.00
2017-11-22T01:22:27.323Z,88.20
2017-11-22T01:24:53.744Z,87.80
2017-11-22T01:27:20.161Z,88.30
2017-11-22T01:29:47.301Z,88.40
2017-11-22T01:32:14.453Z,88.90
2017-11-22T01:34:41.668Z,88.30
2017-11-22T01:37:08.908Z,88.80
2017-11-22T01:39:35.363Z,88.00
2017-11-22T01:42:01.804Z,88.00
2017-11-22T01:44:28.217Z,88.10
2017-11-22T01:46:54.680Z,88.40
2017-11-22T01:49:21.224Z,88.50
2017-11-22T01:51:48.360Z,88.70
2017-11-22T01:54:14.776Z,88.70
2017-11-22T01:56:41.256Z,88.60
2017-11-22T01:59:07.652Z,88.30
2017-11-22T02:01:34.129Z,88.10
2017-11-22T02:04:00.557Z,88.30
2017-11-22T02:06:26.985Z,88.10
2017-11-22T02:08:53.380Z,88.10
2017-11-22T02:11:19.792Z,88.10
2017-11-22T02:13:46.212Z,88.10
2017-11-22T02:16:12.618Z,88.00
2017-11-22T02:18:39.032Z,88.00
2017-11-22T02:21:06.185Z,88.20
2017-11-22T02:23:33.340Z,88.30
2017-11-22T02:26:00.519Z,88.10
2017-11-22T02:28:26.987Z,88.10
2017-11-22T02:30:53.478Z,88.60
2017-11-22T02:33:19.900Z,88.60
2017-11-22T02:35:46.346Z,88.50
2017-11-22T02:38:12.802Z,88.20
2017-11-22T02:40:39.251Z,88.40
2017-11-22T02:43:05.666Z,88.80
2017-11-22T02:45:32.099Z,88.80
2017-11-22T02:47:58.569Z,88.70
2017-11-22T02:50:25.010Z,88.90
2017-11-22T02:52:51.433Z,88.90
2017-11-22T02:55:17.901Z,89.00
2017-11-22T02:57:44.336Z,89.10
2017-11-22T03:00:10.780Z,89.50
2017-11-22T03:02:37.179Z,89.80
2017-11-22T03:05:04.382Z,89.60
2017-11-22T03:07:30.788Z,89.60
2017-11-22T03:09:57.209Z,89.30
2017-11-22T03:12:24.349Z,89.90
2017-11-22T03:14:50.823Z,89.90
2017-11-22T03:17:17.206Z,89.30
2017-11-22T03:19:44.391Z,90.10
2017-11-22T03:22:10.792Z,90.10
2017-11-22T03:24:38.287Z,90.10
2017-11-22T03:27:04.724Z,90.10
2017-11-22T03:29:31.980Z,89.50
2017-11-22T03:31:58.488Z,89.70
2017-11-22T03:34:24.953Z,89.50
2017-11-22T03:36:51.483Z,90.00
2017-11-22T03:39:17.913Z,90.20
2017-11-22T03:41:44.395Z,90.00
2017-11-22T03:44:10.845Z,90.20
2017-11-22T03:46:37.989Z,90.00
2017-11-22T03:49:04.991Z,90.00
2017-11-22T03:51:37.505Z,90.00
2017-11-22T03:54:04.740Z,90.10
2017-11-22T03:56:31.190Z,90.10
2017-11-22T03:58:57.644Z,90.00
2017-11-22T04:01:24.814Z,90.30
2017-11-22T04:03:51.236Z,90.30
2017-11-22T04:06:17.622Z,90.30
2017-11-22T04:08:44.036Z,90.20
2017-11-22T04:11:10.440Z,90.30
2017-11-22T04:13:36.826Z,90.20
2017-11-22T04:16:03.262Z,90.30
2017-11-22T04:18:29.687Z,90.20
2017-11-22T04:20:56.088Z,90.20
2017-11-22T04:23:22.525Z,90.20
2017-11-22T04:25:48.912Z,90.40
2017-11-22T04:28:16.077Z,90.20
2017-11-22T04:30:42.472Z,90.20
2017-11-22T04:33:08.923Z,90.20
2017-11-22T04:35:35.361Z,90.20
2017-11-22T04:38:02.542Z,90.50
2017-11-22T04:40:28.945Z,90.50
2017-11-22T04:42:56.161Z,90.40
2017-11-22T04:45:22.592Z,90.40
2017-11-22T04:47:49.125Z,90.60
2017-11-22T04:50:15.618Z,90.80
2017-11-22T04:52:42.753Z,90.90
2017-11-22T04:55:09.932Z,91.20
2017-11-22T04:57:36.370Z,91.20
2017-11-22T05:00:02.831Z,91.00
2017-11-22T05:02:29.271Z,91.00
2017-11-22T05:04:55.688Z,90.90
2017-11-22T05:07:22.104Z,90.90
2017-11-22T05:09:48.532Z,90.80
2017-11-22T05:12:14.957Z,90.80
2017-11-22T05:14:41.359Z,90.80
2017-11-22T05:17:08.516Z,91.20
2017-11-22T05:19:35.708Z,91.20
2017-11-22T05:22:02.127Z,91.20
2017-11-22T05:24:28.517Z,91.10
2017-11-22T05:26:54.904Z,91.10
2017-11-22T05:29:21.327Z,91.30
2017-11-22T05:31:47.796Z,91.10
2017-11-22T05:34:14.209Z,91.20
2017-11-22T05:36:40.621Z,91.30
2017-11-22T05:39:07.095Z,91.20
2017-11-22T05:41:33.531Z,91.50
2017-11-22T05:43:59.991Z,91.70
2017-11-22T05:46:27.201Z,91.40
2017-11-22T05:48:54.457Z,91.30
2017-11-22T05:51:20.858Z,91.30
2017-11-22T05:53:47.300Z,91.40
2017-11-22T05:56:13.816Z,91.50
2017-11-22T05:58:40.243Z,91.30
2017-11-22T06:01:06.709Z,91.40
2017-11-22T06:03:33.202Z,91.60
2017-11-22T06:06:00.336Z,91.70
2017-11-22T06:08:27.512Z,91.50
2017-11-22T06:10:54.644Z,91.70
2017-11-22T06:13:21.816Z,91.80
2017-11-22T06:15:48.243Z,91.70
2017-11-22T06:18:14.672Z,91.70
2017-11-22T06:20:41.305Z,91.60
2017-11-22T06:23:07.777Z,91.50
2017-11-22T06:25:34.170Z,91.60
2017-11-22T06:28:00.608Z,91.80
2017-11-22T06:30:30.732Z,91.70
2017-11-22T06:32:57.175Z,91.70
2017-11-22T06:35:23.606Z,91.90
2017-11-22T06:37:49.992Z,91.90
2017-11-22T06:40:16.466Z,91.70
2017-11-22T06:42:43.625Z,91.60
2017-11-22T06:45:10.068Z,91.60
2017-11-22T06:47:36.532Z,91.70
2017-11-22T06:50:02.996Z,91.80
2017-11-22T06:52:29.421Z,91.70
2017-11-22T06:54:55.819Z,91.70
2017-11-22T06:57:22.244Z,91.60
2017-11-22T06:59:48.629Z,91.60
2017-11-22T07:02:18.806Z,92.00
2017-11-22T07:04:45.252Z,91.60
2017-11-22T07:07:11.681Z,91.50
2017-11-22T07:09:38.109Z,91.30
2017-11-22T07:12:04.513Z,91.30
2017-11-22T07:14:30.956Z,91.30
2017-11-22T07:17:03.499Z,91.40
2017-11-22T07:19:30.680Z,91.50
2017-11-22T07:21:57.072Z,91.50
2017-11-22T07:24:24.257Z,91.20
2017-11-22T07:26:50.641Z,91.20
2017-11-22T07:29:17.058Z,91.30
2017-11-22T07:31:43.449Z,91.40
2017-11-22T07:34:09.902Z,91.30
2017-11-22T07:36:42.445Z,91.10
2017-11-22T07:39:09.569Z,91.00
2017-11-22T07:41:36.008Z,91.00
2017-11-22T07:44:02.425Z,91.00
2017-11-22T07:46:28.850Z,91.00
2017-11-22T07:48:55.257Z,90.90
2017-11-22T07:51:27.820Z,90.80
2017-11-22T07:53:54.240Z,90.40
2017-11-22T07:56:20.672Z,90.40
2017-11-22T07:58:47.069Z,90.30
2017-11-22T08:01:13.513Z,90.10
2017-11-22T08:03:41.709Z,90.80
2017-11-22T08:06:08.133Z,90.80
2017-11-22T08:08:35.333Z,90.30
2017-11-22T08:11:01.731Z,90.30
2017-11-22T08:13:28.152Z,90.00
2017-11-22T08:15:54.570Z,89.90
2017-11-22T08:18:21.716Z,90.10
2017-11-22T08:20:49.760Z,90.00
2017-11-22T08:23:16.194Z,90.00
2017-11-22T08:25:42.597Z,89.10
2017-11-22T08:28:09.025Z,89.10
2017-11-22T08:30:37.292Z,88.80
2017-11-22T08:33:03.857Z,88.30
2017-11-22T08:35:30.273Z,88.10
2017-11-22T08:37:56.712Z,87.70
2017-11-22T08:40:23.123Z,88.30
2017-11-22T08:42:55.719Z,88.50
2017-11-22T08:45:22.245Z,87.20
2017-11-22T08:47:48.657Z,87.60
2017-11-22T08:50:15.797Z,87.40
2017-11-22T08:52:42.976Z,87.30
2017-11-22T08:55:15.456Z,87.20
2017-11-22T08:57:47.795Z,87.50
2017-11-22T09:00:17.953Z,86.50
2017-11-22T09:02:44.368Z,86.40
2017-11-22T09:05:17.716Z,86.50
2017-11-22T09:07:44.232Z,86.20
2017-11-22T09:10:10.637Z,86.60
2017-11-22T09:12:43.039Z,86.00
2017-11-22T09:15:09.474Z,85.60
2017-11-22T09:17:36.028Z,85.30
2017-11-22T09:20:05.429Z,84.60
2017-11-22T09:22:32.592Z,83.70
2017-11-22T09:25:02.889Z,83.60
2017-11-22T09:27:35.228Z,84.20
2017-11-22T09:30:01.645Z,83.40
2017-11-22T09:32:32.034Z,83.80
2017-11-22T09:35:04.493Z,83.40
2017-11-22T09:37:30.919Z,82.90
2017-11-22T09:39:57.341Z,82.70
2017-11-22T09:42:23.815Z,82.20
2017-11-22T09:44:50.224Z,82.00
2017-11-22T09:47:16.620Z,82.10
2017-11-22T09:49:43.038Z,81.70
2017-11-22T09:52:10.201Z,82.20
2017-11-22T09:54:36.641Z,82.20
2017-11-22T09:57:03.080Z,82.00
2017-11-22T09:59:29.508Z,82.30
2017-11-22T10:01:55.938Z,81.70
2017-11-22T10:04:22.330Z,81.10
2017-11-22T10:06:48.751Z,79.70
2017-11-22T10:09:15.161Z,79.80
2017-11-22T10:11:41.574Z,80.40
2017-11-22T10:14:08.026Z,78.60
2017-11-22T10:16:34.440Z,78.10
2017-11-22T10:19:00.836Z,77.90
2017-11-22T10:21:28.034Z,78.00
2017-11-22T10:23:54.500Z,77.90
2017-11-22T10:26:26.937Z,77.00
2017-11-22T10:28:53.385Z,76.70
2017-11-22T10:31:25.644Z,76.10
2017-11-22T10:33:52.104Z,75.40
2017-11-22T10:36:18.564Z,75.50
2017-11-22T10:38:44.996Z,74.00
2017-11-22T10:41:11.456Z,73.60
2017-11-22T10:43:37.910Z,72.40
2017-11-22T10:46:04.344Z,73.30
2017-11-22T10:48:30.768Z,72.70
2017-11-22T10:50:57.225Z,71.60
2017-11-22T10:53:23.664Z,71.90
2017-11-22T10:55:50.109Z,71.60
2017-11-22T10:58:23.563Z,70.50
2017-11-22T11:00:50.078Z,71.50
2017-11-22T11:03:17.345Z,72.10
2017-11-22T11:05:43.799Z,72.00
2017-11-22T11:08:10.235Z,72.90
2017-11-22T11:10:36.677Z,71.10
2017-11-22T11:13:03.109Z,70.00
2017-11-22T11:15:29.569Z,70.40
2017-11-22T11:17:55.993Z,70.10
2017-11-22T11:20:22.398Z,71.60
2017-11-22T11:22:48.831Z,69.70
2017-11-22T11:25:15.233Z,70.80
2017-11-22T11:27:42.381Z,73.00
2017-11-22T11:30:09.577Z,72.80
2017-11-22T11:32:35.997Z,72.80
2017-11-22T11:35:02.437Z,72.10
2017-11-22T11:37:28.913Z,71.70
2017-11-22T11:39:56.100Z,67.90
2017-11-22T11:42:22.549Z,67.50
2017-11-22T11:44:48.954Z,68.40
2017-11-22T11:47:15.424Z,68.00
2017-11-22T11:49:42.649Z,69.60
2017-11-22T11:52:09.098Z,69.50
2017-11-22T11:54:35.508Z,69.70
2017-11-22T11:57:01.897Z,69.30
2017-11-22T11:59:28.334Z,66.60
2017-11-22T12:01:54.738Z,67.50
2017-11-22T12:04:21.174Z,66.00
2017-11-22T12:06:47.564Z,62.00
2017-11-22T12:09:14.731Z,57.50
2017-11-22T12:11:41.114Z,57.50
2017-11-22T12:14:07.509Z,58.20
2017-11-22T12:16:33.920Z,58.30
2017-11-22T12:19:00.322Z,56.10
2017-11-22T12:21:26.763Z,53.00
2017-11-22T12:23:53.917Z,50.20
2017-11-22T12:26:21.053Z,48.50
2017-11-22T12:28:47.465Z,48.50
2017-11-22T12:31:13.884Z,51.00
2017-11-22T12:33:40.313Z,51.90
2017-11-22T12:36:06.719Z,53.70
2017-11-22T12:38:33.133Z,53.20
2017-11-22T12:41:00.292Z,54.00
2017-11-22T12:43:28.317Z,52.80
2017-11-22T12:45:54.709Z,52.80
2017-11-22T12:48:21.096Z,52.70
2017-11-22T12:50:47.534Z,49.30
2017-11-22T12:53:13.959Z,49.10
2017-11-22T12:55:40.396Z,47.40
2017-11-22T12:58:06.810Z,44.30
2017-11-22T13:00:33.288Z,45.80
2017-11-22T13:03:00.451Z,47.70
2017-11-22T13:05:26.881Z,47.60
2017-11-22T13:07:53.300Z,47.60
2017-11-22T13:10:26.555Z,50.20
2017-11-22T13:12:53.001Z,50.20
2017-11-22T13:15:19.442Z,50.70
2017-11-22T13:17:45.884Z,50.90
2017-11-22T13:20:12.337Z,51.50
2017-11-22T13:22:38.754Z,52.40
2017-11-22T13:25:05.956Z,48.70
2017-11-22T13:27:32.391Z,48.70
2017-11-22T13:29:58.812Z,49.60
2017-11-22T13:32:26.025Z,50.20
2017-11-22T13:34:53.160Z,53.00
2017-11-22T13:37:19.631Z,53.00
2017-11-22T13:39:46.099Z,54.70
2017-11-22T13:42:12.561Z,55.50
2017-11-22T13:44:39.772Z,57.80
2017-11-22T13:47:06.241Z,58.30
2017-11-22T13:49:32.687Z,59.20
2017-11-22T13:51:59.882Z,59.90
2017-11-22T13:54:26.346Z,59.20
2017-11-22T13:56:52.772Z,57.70
2017-11-22T13:59:19.381Z,58.10
2017-11-22T14:01:45.821Z,58.90
2017-11-22T14:04:12.273Z,59.30
2017-11-22T14:06:38.703Z,59.50
2017-11-22T14:09:05.150Z,60.60
2017-11-22T14:11:31.588Z,63.00
2017-11-22T14:13:58.019Z,63.00
2017-11-22T14:16:24.476Z,64.30
2017-11-22T14:18:51.682Z,65.90
2017-11-22T14:21:18.141Z,65.80
2017-11-22T14:23:44.604Z,66.40
2017-11-22T14:26:11.791Z,68.40
2017-11-22T14:28:38.237Z,68.40
2017-11-22T14:31:04.709Z,68.50
2017-11-22T14:33:31.196Z,69.60
2017-11-22T14:35:57.677Z,70.30
2017-11-22T14:38:24.860Z,71.80
2017-11-22T14:40:51.309Z,71.70
2017-11-22T14:43:17.780Z,72.30
2017-11-22T14:45:44.244Z,72.90
2017-11-22T14:48:11.431Z,74.00
2017-11-22T14:50:37.845Z,73.80
2017-11-22T14:53:04.328Z,74.30
2017-11-22T14:55:30.757Z,74.70
2017-11-22T14:57:57.225Z,75.60
2017-11-22T15:00:24.420Z,76.50
2017-11-22T15:02:50.913Z,76.50
2017-11-22T15:05:18.125Z,77.50
2017-11-22T15:07:44.596Z,77.50
2017-11-22T15:10:11.123Z,78.00
2017-11-22T15:12:38.301Z,78.90
2017-11-22T15:15:04.958Z,78.80
2017-11-22T15:17:39.454Z,80.70
2017-11-22T15:20:05.957Z,80.60
2017-11-22T15:22:32.467Z,82.10
2017-11-22T15:24:59.797Z,82.00
2017-11-22T15:27:26.586Z,82.00
2017-11-22T15:29:53.115Z,82.10
2017-11-22T15:32:19.939Z,82.40
2017-11-22T15:34:47.133Z,84.00
2017-11-22T15:37:14.391Z,83.30
2017-11-22T15:39:41.588Z,83.40
2017-11-22T15:42:08.081Z,83.40
2017-11-22T15:44:34.496Z,83.90
2017-11-22T15:47:00.888Z,85.10
2017-11-22T15:49:27.377Z,84.10
2017-11-22T15:51:53.836Z,84.70
2017-11-22T15:54:20.309Z,85.30
2017-11-22T15:56:46.815Z,85.70
2017-11-22T15:59:13.295Z,85.80
2017-11-22T16:01:40.472Z,85.10
2017-11-22T16:04:06.901Z,85.10
2017-11-22T16:06:33.322Z,85.10
2017-11-22T16:09:00.472Z,85.90
2017-11-22T16:11:27.654Z,85.30
2017-11-22T16:13:54.119Z,85.20
2017-11-22T16:16:20.533Z,85.40
2017-11-22T16:18:46.970Z,85.70
2017-11-22T16:21:13.396Z,86.00
2017-11-22T16:23:39.856Z,86.10
2017-11-22T16:26:06.308Z,86.30
2017-11-22T16:28:32.733Z,86.40
2017-11-22T16:30:59.175Z,86.70
2017-11-22T16:33:26.348Z,86.40
2017-11-22T16:35:52.806Z,86.20
2017-11-22T16:38:19.230Z,86.40
2017-11-22T16:40:45.679Z,86.00
2017-11-22T16:43:12.140Z,86.30
2017-11-22T16:45:38.608Z,86.80
2017-11-22T16:48:05.812Z,87.50
2017-11-22T16:50:32.302Z,87.40
2017-11-22T16:52:58.841Z,87.00
2017-11-22T16:55:25.455Z,86.90
2017-11-22T16:57:51.960Z,87.50
2017-11-22T17:02:11.953Z,87.60
2017-11-22T17:04:38.445Z,87.90
2017-11-22T17:07:04.920Z,88.00
2017-11-22T17:09:31.444Z,88.00
2017-11-22T17:11:57.911Z,88.40
2017-11-22T17:14:24.385Z,88.40
2017-11-22T17:16:51.006Z,89.10
2017-11-22T17:19:17.594Z,88.40
2017-11-22T17:22:19.982Z,88.70
2017-11-22T17:24:47.425Z,89.50
2017-11-22T17:27:13.845Z,88.50
2017-11-22T17:29:40.296Z,88.60
2017-11-22T17:32:06.703Z,88.70
2017-11-22T17:34:33.381Z,88.60
2017-11-22T17:37:00.613Z,88.70
2017-11-22T17:39:27.831Z,89.10
2017-11-22T17:41:54.326Z,89.10
2017-11-22T17:44:21.565Z,89.60
2017-11-22T17:46:48.005Z,89.60
2017-11-22T17:49:14.480Z,90.10
2017-11-22T17:51:40.942Z,90.30
2017-11-22T17:54:07.412Z,90.20
2017-11-22T17:56:33.885Z,90.20
2017-11-22T17:59:00.336Z,90.20
2017-11-22T18:01:26.747Z,90.40
2017-11-22T18:03:53.216Z,90.50
2017-11-22T18:06:19.648Z,90.70
2017-11-22T18:08:46.079Z,90.70
2017-11-22T18:11:12.688Z,90.40
2017-11-22T18:13:39.140Z,90.50
2017-11-22T18:16:05.528Z,90.40
2017-11-22T18:18:32.710Z,90.10
2017-11-22T18:20:59.158Z,90.10
2017-11-22T18:23:25.679Z,90.00
2017-11-22T18:25:52.104Z,90.00
2017-11-22T18:28:18.525Z,90.10
2017-11-22T18:30:45.704Z,90.10
2017-11-22T18:33:12.141Z,90.00
2017-11-22T18:35:38.605Z,90.40
2017-11-22T18:38:05.050Z,90.70
2017-11-22T18:40:31.493Z,90.80
2017-11-22T18:42:58.668Z,90.70
2017-11-22T18:45:25.856Z,90.40
2017-11-22T18:47:52.324Z,90.40
2017-11-22T18:50:18.757Z,90.40
2017-11-22T18:52:45.225Z,90.40
2017-11-22T18:55:11.650Z,90.20
2017-11-22T18:57:38.136Z,90.00
2017-11-22T19:00:04.584Z,90.00
2017-11-22T19:02:31.012Z,90.00
2017-11-22T19:04:57.392Z,89.90
2017-11-22T19:07:23.824Z,90.00
2017-11-22T19:09:50.236Z,89.60
2017-11-22T19:12:17.409Z,90.10
2017-11-22T19:14:43.815Z,90.10
2017-11-22T19:17:10.248Z,90.70
2017-11-22T19:19:36.656Z,90.70
2017-11-22T19:22:03.069Z,90.20
2017-11-22T19:24:29.512Z,90.00
2017-11-22T19:26:55.929Z,90.00
2017-11-22T19:29:25.418Z,90.40
2017-11-22T19:33:36.369Z,90.20
2017-11-22T19:36:02.832Z,90.40
2017-11-22T19:38:29.633Z,90.20
2017-11-22T19:41:02.196Z,90.40
2017-11-22T19:43:34.949Z,90.60
2017-11-22T19:46:01.644Z,90.70
2017-11-22T19:48:28.264Z,90.70
2017-11-22T19:50:54.737Z,90.60
2017-11-22T19:53:21.261Z,90.60
2017-11-22T19:55:47.829Z,90.70
2017-11-22T19:58:14.320Z,90.30
2017-11-22T20:00:40.797Z,90.30
2017-11-22T20:03:07.332Z,90.70
2017-11-22T20:05:33.831Z,90.80
2017-11-22T20:08:12.566Z,90.80
2017-11-22T20:10:39.103Z,90.70
2017-11-22T20:13:05.675Z,90.60
2017-11-22T20:15:32.104Z,90.60
2017-11-22T20:17:58.598Z,90.40
2017-11-22T20:20:25.160Z,91.00
2017-11-22T20:22:51.699Z,90.70
2017-11-22T20:25:18.284Z,90.90
2017-11-22T20:27:44.748Z,90.80
2017-11-22T20:30:11.669Z,90.90
2017-11-22T20:32:38.430Z,90.90
2017-11-22T20:35:05.920Z,90.70
2017-11-22T20:37:32.573Z,90.70
2017-11-22T20:39:59.168Z,91.10
2017-11-22T20:42:25.770Z,90.80
2017-11-22T20:44:52.287Z,90.70
2017-11-22T20:47:19.481Z,90.80
2017-11-22T20:49:45.949Z,90.70
2017-11-22T20:52:12.529Z,90.80
2017-11-22T20:54:39.174Z,90.90
2017-11-22T20:57:05.702Z,91.00
2017-11-22T20:59:32.161Z,91.00
2017-11-22T21:01:58.606Z,91.20
2017-11-22T21:04:25.249Z,91.20
2017-11-22T21:06:52.641Z,91.50
2017-11-22T21:09:19.975Z,91.40
2017-11-22T21:11:46.584Z,91.30
2017-11-22T21:14:13.312Z,91.40
2017-11-22T21:16:39.777Z,91.20
2017-11-22T21:21:31.972Z,90.90
2017-11-22T21:23:58.533Z,91.10
2017-11-22T21:26:24.985Z,90.90
2017-11-22T21:28:51.394Z,90.90
2017-11-22T21:31:18.542Z,90.80
2017-11-22T21:33:45.716Z,90.70
2017-11-22T21:36:12.112Z,90.70
2017-11-22T21:38:39.894Z,91.10
2017-11-22T21:41:06.422Z,90.70
2017-11-22T21:43:33.577Z,90.80
2017-11-22T21:46:01.130Z,90.80
2017-11-22T21:48:27.609Z,90.80
2017-11-22T21:50:54.133Z,91.00
2017-11-22T21:53:20.536Z,91.10
2017-11-22T21:55:47.837Z,91.10
2017-11-22T21:58:14.286Z,91.10
2017-11-22T22:00:40.689Z,91.00
2017-11-22T22:03:07.155Z,91.00
2017-11-22T22:05:33.584Z,91.10
2017-11-22T22:08:00.011Z,91.30
2017-11-22T22:10:26.442Z,91.60
2017-11-22T22:12:52.834Z,91.30
2017-11-22T22:15:19.273Z,91.20
2017-11-22T22:17:45.660Z,91.30
2017-11-22T22:20:12.080Z,91.40
2017-11-22T22:22:39.291Z,91.00
2017-11-22T22:25:05.725Z,91.00
2017-11-22T22:27:32.160Z,90.90
2017-11-22T22:29:58.576Z,90.80
2017-11-22T22:32:25.732Z,90.90
2017-11-22T22:34:52.157Z,90.90
2017-11-22T22:37:19.300Z,90.90
2017-11-22T22:39:46.474Z,90.90
2017-11-22T22:42:12.858Z,90.90
2017-11-22T22:44:39.272Z,90.90
2017-11-22T22:47:05.700Z,91.00
2017-11-22T22:49:32.120Z,91.00
2017-11-22T22:51:58.536Z,90.80
2017-11-22T22:54:24.976Z,90.60
2017-11-22T22:56:51.365Z,90.50
2017-11-22T22:59:17.782Z,90.50
2017-11-22T23:01:44.204Z,90.70
2017-11-22T23:04:10.622Z,90.50
2017-11-22T23:06:37.137Z,90.30
2017-11-22T23:09:03.582Z,90.10
2017-11-22T23:11:30.010Z,90.00
2017-11-22T23:13:56.448Z,90.10
2017-11-22T23:16:22.841Z,90.00
2017-11-22T23:18:50.013Z,90.30
2017-11-22T23:21:16.429Z,90.30
2017-11-22T23:23:43.622Z,90.20
2017-11-22T23:26:10.020Z,90.20
2017-11-22T23:28:36.482Z,90.30
2017-11-22T23:31:02.869Z,90.30
2017-11-22T23:33:29.992Z,90.80
2017-11-22T23:35:56.404Z,90.30
2017-11-22T23:38:22.845Z,90.50
2017-11-22T23:40:49.250Z,90.30
2017-11-22T23:43:15.644Z,90.10
2017-11-22T23:45:42.038Z,90.20
2017-11-22T23:48:08.476Z,90.40
2017-11-22T23:50:34.922Z,89.90
2017-11-22T23:53:01.356Z,90.00
2017-11-22T23:55:27.748Z,90.20
2017-11-22T23:57:54.169Z,90.20
